Time;durP1;ratioP1;P1;durP2;ratioP2;P2;SDS_P1;SDS_P2;PMS_P1;PMS_P2;Temp;Humidity;BMP_temperature;BMP_pressure;BME280_temperature;BME280_humidity;BME280_pressure;Samples;Min_cycle;Max_cycle;Signal;HPM_P1;HPM_P2
2023/08/23 07:25:17;;;;;;;5.03;2.95;;;31.10;99.90;;;;;;4860541;29;20276;-74
2023/08/23 07:27:43;;;;;;;6.18;2.38;;;31.00;99.90;;;;;;4862568;29;20568;-72
2023/08/23 07:30:12;;;;;;;9.07;2.30;;;31.00;99.90;;;;;;4856395;29;20324;-70
2023/08/23 07:32:39;;;;;;;5.20;2.42;;;31.40;99.90;;;;;;4866396;29;20242;-70
2023/08/23 07:35:07;;;;;;;3.50;1.90;;;31.00;99.90;;;;;;4868886;29;20306;-70
2023/08/23 07:37:34;;;;;;;3.03;1.60;;;31.30;99.90;;;;;;4854630;29;20691;-74
2023/08/23 07:40:04;;;;;;;1.83;1.40;;;31.40;99.10;;;;;;4861202;29;20255;-71
2023/08/23 07:42:32;;;;;;;2.88;1.60;;;31.20;99.60;;;;;;4861543;29;20248;-71
2023/08/23 07:44:59;;;;;;;2.33;1.67;;;30.90;99.30;;;;;;4861824;29;20673;-71
2023/08/23 07:47:26;;;;;;;4.03;1.88;;;31.40;99.50;;;;;;4859593;29;20261;-71
2023/08/23 07:49:53;;;;;;;4.88;2.13;;;31.60;98.60;;;;;;4859238;29;20315;-71
2023/08/23 07:52:20;;;;;;;7.72;2.30;;;31.80;98.20;;;;;;4861574;29;20648;-71
2023/08/23 07:54:46;;;;;;;3.45;2.00;;;32.10;98.30;;;;;;4861596;29;20243;-71
2023/08/23 07:57:13;;;;;;;3.95;2.08;;;32.30;97.90;;;;;;4861450;29;20300;-71
2023/08/23 07:59:41;;;;;;;2.78;1.67;;;32.50;97.90;;;;;;4861099;29;20323;-69
2023/08/23 08:02:08;;;;;;;5.18;2.40;;;32.70;97.60;;;;;;4860953;29;20725;-70
2023/08/23 08:04:35;;;;;;;3.90;2.10;;;32.50;97.20;;;;;;4861612;29;20326;-70
2023/08/23 08:07:03;;;;;;;4.78;2.05;;;32.70;97.40;;;;;;4859695;29;20219;-68
2023/08/23 08:09:29;;;;;;;6.47;2.00;;;31.90;97.30;;;;;;4843958;29;20248;-72
2023/08/23 08:11:57;;;;;;;4.35;1.95;;;31.80;97.70;;;;;;4856621;29;20251;-70
2023/08/23 08:14:23;;;;;;;3.15;1.73;;;32.10;97.90;;;;;;4859803;29;20333;-68
2023/08/23 08:16:52;;;;;;;3.88;1.80;;;32.00;98.00;;;;;;4859383;29;20251;-70
2023/08/23 08:19:19;;;;;;;3.40;1.88;;;31.90;98.30;;;;;;4860150;29;20266;-68
2023/08/23 08:21:45;;;;;;;4.55;1.90;;;31.70;98.50;;;;;;4860021;29;20295;-70
2023/08/23 08:24:12;;;;;;;4.13;1.60;;;31.80;98.80;;;;;;4858317;29;20331;-71
2023/08/23 08:26:39;;;;;;;4.38;1.90;;;31.60;98.40;;;;;;4859632;29;20258;-72
2023/08/23 08:29:06;;;;;;;5.15;1.70;;;31.70;98.30;;;;;;4851732;29;20264;-67
2023/08/23 08:31:33;;;;;;;3.95;2.33;;;31.70;98.40;;;;;;4859014;29;20688;-68
2023/08/23 08:34:01;;;;;;;4.10;2.05;;;32.10;97.80;;;;;;4859229;29;20266;-69
2023/08/23 08:36:28;;;;;;;4.72;2.05;;;31.90;97.90;;;;;;4844158;29;20243;-69
2023/08/23 08:38:55;;;;;;;8.02;1.90;;;31.70;98.10;;;;;;4858361;29;20299;-71
2023/08/23 08:41:22;;;;;;;3.85;1.58;;;31.90;99.10;;;;;;4859726;29;20270;-71
2023/08/23 08:43:50;;;;;;;4.68;1.95;;;31.70;98.50;;;;;;4859493;29;20327;-70
2023/08/23 08:46:17;;;;;;;2.50;1.70;;;31.20;98.40;;;;;;4858467;29;20239;-71
2023/08/23 08:48:45;;;;;;;7.13;1.90;;;31.00;98.80;;;;;;4851751;29;20303;-72
2023/08/23 08:51:19;;;;;;;3.72;1.98;;;30.90;99.10;;;;;;4859233;29;20311;-70
2023/08/23 08:53:49;;;;;;;3.42;1.95;;;31.30;98.50;;;;;;4851146;29;20211;-71
2023/08/23 08:56:17;;;;;;;4.53;1.75;;;31.20;98.80;;;;;;4859231;29;20216;-71
2023/08/23 08:58:45;;;;;;;3.65;1.77;;;31.20;98.80;;;;;;4851846;29;20318;-70
2023/08/23 09:01:15;;;;;;;3.50;1.85;;;31.10;99.10;;;;;;4858257;29;20311;-71
2023/08/23 09:03:42;;;;;;;11.13;2.00;;;31.20;99.00;;;;;;4859257;29;20595;-70
2023/08/23 09:06:10;;;;;;;3.97;1.77;;;31.10;98.60;;;;;;4858421;29;20311;-71
2023/08/23 09:08:40;;;;;;;3.08;1.85;;;31.00;99.00;;;;;;4843977;29;20277;-70
2023/08/23 09:11:07;;;;;;;3.83;1.65;;;30.90;98.80;;;;;;4858599;29;20314;-72
2023/08/23 09:13:34;;;;;;;4.25;1.80;;;30.80;98.70;;;;;;4848923;29;20732;-71
2023/08/23 09:16:01;;;;;;;3.88;1.58;;;30.70;99.00;;;;;;4853637;29;20641;-71
2023/08/23 09:18:27;;;;;;;3.20;1.50;;;30.80;99.40;;;;;;4853002;29;20642;-71
2023/08/23 09:20:54;;;;;;;2.80;1.02;;;31.00;99.10;;;;;;4858781;29;20649;-72
2023/08/23 09:23:21;;;;;;;1.98;1.00;;;31.20;98.00;;;;;;4857966;29;20298;-74
2023/08/23 09:25:49;;;;;;;2.83;1.20;;;31.20;98.20;;;;;;4854693;29;20299;-73
2023/08/23 09:28:16;;;;;;;2.13;1.40;;;30.90;98.10;;;;;;4853562;29;20629;-72
2023/08/23 09:30:48;;;;;;;2.40;1.50;;;30.60;98.10;;;;;;4855008;29;20259;-72
2023/08/23 09:33:15;;;;;;;4.65;1.58;;;29.80;99.10;;;;;;4852085;29;20291;-72
2023/08/23 09:35:49;;;;;;;2.40;1.50;;;30.40;98.30;;;;;;4851774;29;20319;-71
2023/08/23 09:38:19;;;;;;;1.92;1.40;;;30.50;97.80;;;;;;4853094;29;20209;-72
2023/08/23 09:40:49;;;;;;;3.15;1.50;;;30.10;98.40;;;;;;4858927;29;20234;-72
2023/08/23 09:43:16;;;;;;;6.20;1.50;;;30.40;98.20;;;;;;4860030;29;20349;-71
2023/08/23 09:45:44;;;;;;;1.95;1.20;;;30.20;98.00;;;;;;4859869;29;20235;-71
2023/08/23 09:48:13;;;;;;;3.25;1.23;;;30.10;99.30;;;;;;4859915;29;20308;-71
2023/08/23 09:50:39;;;;;;;2.38;1.63;;;29.80;99.80;;;;;;4859286;29;20639;-72
2023/08/23 09:53:11;;;;;;;3.15;2.00;;;29.40;99.50;;;;;;4860327;29;20254;-71
2023/08/23 09:55:39;;;;;;;6.45;2.03;;;28.80;99.30;;;;;;4860118;29;20299;-71
2023/08/23 09:58:08;;;;;;;4.72;1.90;;;28.50;99.80;;;;;;4856082;29;20209;-70
2023/08/23 10:00:36;;;;;;;3.22;1.95;;;28.30;99.90;;;;;;4857010;29;20617;-71
2023/08/23 10:03:03;;;;;;;3.70;1.80;;;28.20;99.90;;;;;;4856617;29;20213;-72
2023/08/23 10:05:30;;;;;;;2.92;1.38;;;28.20;99.90;;;;;;4848891;29;20330;-70
2023/08/23 10:07:58;;;;;;;2.13;1.23;;;27.90;99.90;;;;;;4860054;29;20303;-71
2023/08/23 10:10:26;;;;;;;3.45;1.50;;;27.40;99.90;;;;;;4860143;29;20334;-71
2023/08/23 10:12:56;;;;;;;2.00;0.88;;;27.50;99.90;;;;;;4861468;29;20211;-70
2023/08/23 10:15:29;;;;;;;3.95;0.80;;;27.00;99.90;;;;;;4850703;29;20247;-70
2023/08/23 10:17:58;;;;;;;1.92;1.02;;;26.90;99.20;;;;;;4863079;29;20213;-70
2023/08/23 10:20:25;;;;;;;2.65;0.90;;;27.10;99.60;;;;;;4862981;29;20322;-70
2023/08/23 10:22:54;;;;;;;2.10;0.80;;;27.00;99.90;;;;;;4862471;29;20290;-70
2023/08/23 10:25:22;;;;;;;1.05;0.70;;;27.10;97.70;;;;;;4855720;29;20239;-70
2023/08/23 10:27:52;;;;;;;3.05;0.60;;;27.20;98.70;;;;;;4862732;29;20242;-70
2023/08/23 10:30:24;;;;;;;1.10;0.60;;;27.20;96.60;;;;;;4856432;29;20322;-70
2023/08/23 10:32:52;;;;;;;2.97;0.80;;;27.30;98.20;;;;;;4862520;29;20295;-70
2023/08/23 10:35:24;;;;;;;2.35;0.60;;;27.10;97.20;;;;;;4863118;29;20232;-71
2023/08/23 10:37:53;;;;;;;2.70;0.70;;;26.90;97.70;;;;;;4862593;29;20226;-70
2023/08/23 10:40:21;;;;;;;2.47;0.70;;;27.00;97.40;;;;;;4865294;29;20781;-73
2023/08/23 10:42:49;;;;;;;1.80;0.80;;;27.20;97.20;;;;;;4865668;29;20647;-71
2023/08/23 10:45:16;;;;;;;1.58;0.60;;;27.40;97.70;;;;;;4862659;29;20278;-72
2023/08/23 10:47:44;;;;;;;2.67;0.60;;;27.40;97.30;;;;;;4862389;29;20211;-71
2023/08/23 10:50:13;;;;;;;1.02;0.60;;;27.40;97.50;;;;;;4862330;29;20243;-70
2023/08/23 10:52:40;;;;;;;1.48;0.55;;;27.20;96.70;;;;;;4862779;29;20243;-71
2023/08/23 10:55:07;;;;;;;1.90;0.55;;;27.30;97.90;;;;;;4862172;29;20299;-70
2023/08/23 10:57:34;;;;;;;3.95;0.70;;;27.30;97.80;;;;;;4862931;29;20247;-72
2023/08/23 11:00:02;;;;;;;1.67;0.60;;;27.50;97.00;;;;;;4856100;29;20315;-72
2023/08/23 11:02:31;;;;;;;1.65;0.63;;;27.60;97.10;;;;;;4862705;29;20235;-73
2023/08/23 11:04:58;;;;;;;2.13;0.70;;;27.70;96.50;;;;;;4862254;29;20239;-73
2023/08/23 11:07:27;;;;;;;3.03;0.70;;;27.60;96.70;;;;;;4862715;29;20231;-72
2023/08/23 11:09:54;;;;;;;1.65;0.60;;;27.60;95.00;;;;;;4861940;29;20342;-74
2023/08/23 11:12:21;;;;;;;0.98;0.50;;;27.60;95.50;;;;;;4862794;29;20220;-72
2023/08/23 11:14:48;;;;;;;0.95;0.65;;;27.40;96.30;;;;;;4862317;29;20244;-72
2023/08/23 11:17:17;;;;;;;1.13;0.60;;;27.40;96.00;;;;;;4862317;29;20307;-72
2023/08/23 11:19:44;;;;;;;1.92;0.70;;;27.50;96.70;;;;;;4861919;29;20238;-74
2023/08/23 11:22:11;;;;;;;1.63;0.70;;;27.50;97.30;;;;;;4861319;29;20664;-72
2023/08/23 11:24:39;;;;;;;1.70;0.68;;;27.60;97.10;;;;;;4855014;29;20323;-73
2023/08/23 11:27:13;;;;;;;2.38;0.50;;;27.60;97.20;;;;;;4858801;29;20311;-74
2023/08/23 11:29:39;;;;;;;1.30;0.65;;;27.60;96.30;;;;;;4862045;29;20236;-72
2023/08/23 11:32:07;;;;;;;1.98;0.70;;;27.70;96.40;;;;;;4862199;29;20232;-72
2023/08/23 11:34:34;;;;;;;1.35;0.77;;;27.80;96.50;;;;;;4851883;29;20220;-72
2023/08/23 11:37:06;;;;;;;1.35;0.60;;;27.90;97.30;;;;;;4857450;29;20216;-71
2023/08/23 11:39:33;;;;;;;1.48;0.73;;;28.00;96.70;;;;;;4861769;29;20303;-72
2023/08/23 11:42:02;;;;;;;1.77;0.65;;;28.10;96.30;;;;;;4862411;29;20424;-72
2023/08/23 11:44:29;;;;;;;0.50;0.50;;;28.20;96.70;;;;;;4861977;29;20271;-74
2023/08/23 11:46:58;;;;;;;1.58;0.70;;;28.30;96.40;;;;;;4862093;29;20299;-74
2023/08/23 11:49:25;;;;;;;2.10;0.60;;;28.30;97.60;;;;;;4861818;29;20239;-76
2023/08/23 11:51:53;;;;;;;0.77;0.60;;;28.40;96.40;;;;;;4861969;29;20218;-74
2023/08/23 11:54:22;;;;;;;7.15;1.67;;;28.50;94.70;;;;;;4861763;29;20220;-74
2023/08/23 11:56:49;;;;;;;11.50;2.90;;;28.50;95.30;;;;;;4861785;29;20609;-74
2023/08/23 11:59:17;;;;;;;2.50;0.68;;;28.50;94.90;;;;;;4862018;29;20299;-74
2023/08/23 12:01:44;;;;;;;3.67;0.60;;;28.60;94.60;;;;;;4862023;29;20272;-74
2023/08/23 12:04:12;;;;;;;59.78;13.32;;;28.50;96.20;;;;;;4861485;29;20694;-74
2023/08/23 12:06:39;;;;;;;13.50;3.70;;;28.50;96.10;;;;;;4861513;29;20298;-74
2023/08/23 12:09:06;;;;;;;7.00;1.50;;;28.40;96.10;;;;;;4861872;29;20235;-73
2023/08/23 12:11:33;;;;;;;1.38;0.55;;;28.30;95.70;;;;;;4861580;29;20238;-75
2023/08/23 12:14:03;;;;;;;6.65;1.30;;;28.40;95.10;;;;;;4861304;29;20706;-75
2023/08/23 12:16:31;;;;;;;15.55;2.35;;;28.30;96.40;;;;;;4861383;29;20667;-74
2023/08/23 12:18:59;;;;;;;1.48;0.80;;;28.30;96.70;;;;;;4861418;29;20290;-74
2023/08/23 12:21:26;;;;;;;3.95;0.90;;;28.30;95.50;;;;;;4861259;29;20719;-73
2023/08/23 12:23:53;;;;;;;1.88;0.85;;;28.20;96.10;;;;;;4861050;29;20247;-74
2023/08/23 12:26:24;;;;;;;1.63;0.65;;;28.10;96.30;;;;;;4861398;29;20250;-74
2023/08/23 12:28:51;;;;;;;0.93;0.50;;;28.10;95.20;;;;;;4861754;29;20632;-75
2023/08/23 12:31:18;;;;;;;1.33;1.02;;;28.30;95.60;;;;;;4861028;29;20337;-76
2023/08/23 12:33:47;;;;;;;1.13;0.75;;;28.40;96.00;;;;;;4861060;29;20300;-74
2023/08/23 12:36:15;;;;;;;1.50;0.68;;;28.30;96.80;;;;;;4861006;29;20299;-74
2023/08/23 12:38:42;;;;;;;1.17;0.70;;;28.20;98.30;;;;;;4861115;29;20254;-74
2023/08/23 12:41:09;;;;;;;3.75;0.82;;;28.30;97.60;;;;;;4860940;29;20243;-74
2023/08/23 12:43:36;;;;;;;5.45;0.82;;;28.10;97.50;;;;;;4861093;29;20340;-74
2023/08/23 12:46:03;;;;;;;1.52;0.70;;;28.00;97.80;;;;;;4861193;29;20243;-75
2023/08/23 12:48:30;;;;;;;3.53;1.02;;;27.90;96.50;;;;;;4860979;29;20744;-74
2023/08/23 12:50:58;;;;;;;1.60;0.55;;;28.00;96.90;;;;;;4860936;29;20323;-75
2023/08/23 12:53:25;;;;;;;3.42;0.57;;;28.10;96.90;;;;;;4860972;29;20747;-75
2023/08/23 12:55:53;;;;;;;1.90;0.80;;;28.10;96.90;;;;;;4860812;29;20311;-75
2023/08/23 12:58:20;;;;;;;1.00;0.50;;;28.20;97.90;;;;;;4860682;29;20268;-75
2023/08/23 13:00:47;;;;;;;1.23;0.75;;;28.20;97.40;;;;;;4860830;29;20718;-75
2023/08/23 13:03:14;;;;;;;0.70;0.55;;;28.20;98.30;;;;;;4860941;29;20302;-74
2023/08/23 13:05:41;;;;;;;1.00;0.60;;;28.40;97.70;;;;;;4861001;29;20302;-76
2023/08/23 13:08:10;;;;;;;1.25;0.80;;;28.50;98.20;;;;;;4860754;29;20290;-75
2023/08/23 13:10:38;;;;;;;1.15;0.70;;;28.50;97.70;;;;;;4860606;29;20263;-76
2023/08/23 13:13:05;;;;;;;2.38;0.80;;;28.70;97.80;;;;;;4860827;29;20244;-73
2023/08/23 13:15:32;;;;;;;2.00;0.50;;;28.70;97.50;;;;;;4860629;29;20299;-74
2023/08/23 13:18:00;;;;;;;2.80;0.80;;;28.70;97.90;;;;;;4860522;29;20243;-75
2023/08/23 13:20:27;;;;;;;1.58;0.70;;;28.70;97.50;;;;;;4860953;29;20577;-75
2023/08/23 13:22:54;;;;;;;1.35;0.63;;;28.70;98.20;;;;;;4860575;29;20254;-74
2023/08/23 13:25:22;;;;;;;3.72;0.63;;;28.80;98.30;;;;;;4860086;29;20243;-75
2023/08/23 13:27:49;;;;;;;1.60;0.80;;;28.70;98.30;;;;;;4860689;29;20302;-75
2023/08/23 13:30:17;;;;;;;0.98;0.80;;;28.70;99.90;;;;;;4860555;29;20227;-75
2023/08/23 13:32:44;;;;;;;2.45;0.77;;;28.50;99.70;;;;;;4860541;29;20218;-74
2023/08/23 13:35:11;;;;;;;1.13;0.60;;;28.30;99.80;;;;;;4860433;29;20306;-76
2023/08/23 13:37:38;;;;;;;1.15;0.73;;;28.20;99.40;;;;;;4860317;29;20336;-74
2023/08/23 13:40:06;;;;;;;1.73;0.77;;;28.10;99.90;;;;;;4860210;29;20290;-75
2023/08/23 13:42:34;;;;;;;1.63;0.80;;;28.10;99.90;;;;;;4860150;29;20299;-75
2023/08/23 13:45:01;;;;;;;2.08;0.95;;;28.20;99.50;;;;;;4860405;29;20795;-75
2023/08/23 13:47:28;;;;;;;1.63;0.65;;;28.30;99.90;;;;;;4864098;29;20714;-74
2023/08/23 13:49:55;;;;;;;0.90;0.60;;;28.30;99.90;;;;;;4863834;29;20706;-74
2023/08/23 13:52:22;;;;;;;3.35;0.70;;;28.20;99.90;;;;;;4864122;29;20247;-74
2023/08/23 13:54:49;;;;;;;3.97;0.73;;;28.10;99.90;;;;;;4864235;29;20737;-76
2023/08/23 13:57:16;;;;;;;0.90;0.70;;;28.10;99.90;;;;;;4864165;29;20639;-74
2023/08/23 13:59:44;;;;;;;1.77;0.70;;;28.10;99.90;;;;;;4864028;29;20232;-74
2023/08/23 14:02:12;;;;;;;1.30;0.80;;;28.10;99.90;;;;;;4863721;29;20719;-74
2023/08/23 14:04:38;;;;;;;2.45;0.93;;;28.00;99.90;;;;;;4863964;29;20219;-74
2023/08/23 14:07:06;;;;;;;4.00;0.70;;;27.90;99.90;;;;;;4863841;29;20330;-74
2023/08/23 14:09:33;;;;;;;2.10;0.90;;;28.10;99.90;;;;;;4863986;29;20299;-76
2023/08/23 14:12:00;;;;;;;2.75;0.63;;;28.30;99.60;;;;;;4863944;29;20246;-75
2023/08/23 14:14:27;;;;;;;1.15;0.60;;;28.40;99.60;;;;;;4863645;29;20250;-75
2023/08/23 14:16:55;;;;;;;3.90;0.73;;;28.50;99.90;;;;;;4863566;29;20779;-74
2023/08/23 14:19:24;;;;;;;1.63;0.77;;;28.60;99.90;;;;;;4863296;29;20294;-74
2023/08/23 14:21:51;;;;;;;1.27;0.60;;;28.60;99.90;;;;;;4863534;29;20250;-74
2023/08/23 14:24:17;;;;;;;2.33;0.82;;;28.60;99.90;;;;;;4862963;29;20755;-74
2023/08/23 14:26:44;;;;;;;1.50;0.88;;;28.50;99.90;;;;;;4863605;29;20326;-75
2023/08/23 14:29:11;;;;;;;3.47;1.08;;;28.50;99.90;;;;;;4863717;29;20302;-75
2023/08/23 14:31:38;;;;;;;3.70;0.68;;;28.50;99.50;;;;;;4863431;29;20264;-74
2023/08/23 14:34:06;;;;;;;1.13;0.70;;;28.60;99.80;;;;;;4863427;29;20252;-76
2023/08/23 14:36:33;;;;;;;7.38;0.90;;;28.60;99.90;;;;;;4863331;29;20300;-74
2023/08/23 14:39:01;;;;;;;1.92;0.60;;;28.60;99.90;;;;;;4862892;29;20212;-75
2023/08/23 14:41:28;;;;;;;1.50;0.80;;;28.50;99.90;;;;;;4863332;29;20267;-74
2023/08/23 14:43:55;;;;;;;1.83;0.80;;;28.60;99.30;;;;;;4863399;29;20239;-75
2023/08/23 14:46:21;;;;;;;3.28;0.90;;;28.80;99.50;;;;;;4862955;29;20326;-74
2023/08/23 14:48:48;;;;;;;1.63;0.70;;;28.80;99.50;;;;;;4863438;29;20218;-75
2023/08/23 14:51:17;;;;;;;0.80;0.63;;;28.70;99.90;;;;;;4862992;29;20327;-74
2023/08/23 14:53:43;;;;;;;2.58;0.98;;;28.50;99.90;;;;;;4863021;29;20634;-75
2023/08/23 14:56:12;;;;;;;1.48;0.88;;;28.40;99.90;;;;;;4862773;29;20323;-75
2023/08/23 14:58:39;;;;;;;2.38;0.80;;;28.50;99.90;;;;;;4861825;29;20212;-75
2023/08/23 15:01:06;;;;;;;2.30;0.90;;;28.70;99.90;;;;;;4862785;29;20772;-74
2023/08/23 15:03:33;;;;;;;1.20;0.82;;;28.80;99.90;;;;;;4863262;29;20247;-75
2023/08/23 15:06:00;;;;;;;2.30;0.90;;;28.90;99.90;;;;;;4863046;29;20243;-73
2023/08/23 15:08:28;;;;;;;1.17;0.70;;;28.80;99.90;;;;;;4862808;29;20306;-75
2023/08/23 15:10:56;;;;;;;3.08;1.10;;;28.70;99.90;;;;;;4862697;29;20666;-74
2023/08/23 15:13:23;;;;;;;1.38;0.82;;;28.70;99.50;;;;;;4862682;29;20883;-75
2023/08/23 15:15:57;;;;;;;1.30;0.70;;;28.60;99.80;;;;;;4862993;29;20208;-75
2023/08/23 15:18:24;;;;;;;2.42;1.02;;;28.50;99.90;;;;;;4862526;29;20255;-74
2023/08/23 15:20:52;;;;;;;2.03;0.70;;;28.60;99.80;;;;;;4862346;29;20267;-74
2023/08/23 15:23:18;;;;;;;1.25;0.85;;;28.60;99.90;;;;;;4862004;29;20311;-74
2023/08/23 15:25:47;;;;;;;2.38;0.80;;;28.60;99.90;;;;;;4862128;29;20775;-74
2023/08/23 15:28:14;;;;;;;1.52;1.05;;;28.60;99.90;;;;;;4862491;29;20275;-74
2023/08/23 15:30:41;;;;;;;4.07;0.95;;;28.60;99.90;;;;;;4862374;29;20315;-74
2023/08/23 15:33:08;;;;;;;1.65;0.90;;;28.50;99.90;;;;;;4862338;29;20252;-74
2023/08/23 15:35:35;;;;;;;1.58;0.93;;;28.50;99.90;;;;;;4862323;29;20212;-74
2023/08/23 15:38:02;;;;;;;1.80;0.90;;;28.30;99.90;;;;;;4862454;29;20285;-76
2023/08/23 15:40:29;;;;;;;0.90;0.70;;;28.30;99.90;;;;;;4862156;29;20318;-74
2023/08/23 15:42:57;;;;;;;1.52;1.08;;;28.30;99.90;;;;;;4862040;29;20255;-74
2023/08/23 15:45:25;;;;;;;1.80;0.90;;;28.30;99.90;;;;;;4862199;29;20646;-74
2023/08/23 15:47:51;;;;;;;2.78;1.02;;;28.40;99.90;;;;;;4862301;29;20746;-74
2023/08/23 15:50:18;;;;;;;2.28;0.77;;;28.40;99.90;;;;;;4862111;29;20272;-74
2023/08/23 15:52:45;;;;;;;2.85;1.00;;;28.40;99.90;;;;;;4862034;29;20645;-74
2023/08/23 15:55:12;;;;;;;2.55;0.80;;;28.40;99.90;;;;;;4861685;29;20639;-75
2023/08/23 15:57:41;;;;;;;1.55;0.90;;;28.20;99.90;;;;;;4861984;29;20226;-74
2023/08/23 16:00:11;;;;;;;1.40;1.00;;;28.30;99.90;;;;;;4862124;29;20611;-75
2023/08/23 16:02:38;;;;;;;3.22;1.02;;;28.20;99.90;;;;;;4861912;29;20212;-75
2023/08/23 16:05:05;;;;;;;2.45;0.93;;;28.20;99.90;;;;;;4862011;29;20240;-74
2023/08/23 16:07:32;;;;;;;1.35;0.90;;;28.20;99.90;;;;;;4861655;29;20326;-74
2023/08/23 16:09:59;;;;;;;2.33;0.90;;;28.30;99.90;;;;;;4861263;29;20319;-75
2023/08/23 16:12:26;;;;;;;2.05;0.88;;;28.30;99.90;;;;;;4861912;29;20239;-74
2023/08/23 16:14:53;;;;;;;2.15;0.80;;;28.10;99.90;;;;;;4861660;29;20294;-75
2023/08/23 16:17:21;;;;;;;2.05;0.90;;;28.00;99.90;;;;;;4861557;29;20258;-74
2023/08/23 16:19:48;;;;;;;2.90;0.90;;;28.20;99.90;;;;;;4861255;29;20319;-75
2023/08/23 16:22:15;;;;;;;1.10;0.90;;;28.10;99.90;;;;;;4861547;29;20251;-74
2023/08/23 16:24:43;;;;;;;3.85;1.00;;;28.10;99.90;;;;;;4861376;29;20259;-75
2023/08/23 16:27:10;;;;;;;0.98;0.80;;;27.90;99.90;;;;;;4861299;29;20326;-74
2023/08/23 16:29:37;;;;;;;2.25;1.55;;;27.90;99.90;;;;;;4861193;29;20302;-75
2023/08/23 16:32:04;;;;;;;2.28;0.95;;;27.80;99.90;;;;;;4861124;29;20298;-74
2023/08/23 16:34:32;;;;;;;3.03;0.98;;;27.80;99.80;;;;;;4861196;29;20299;-74
2023/08/23 16:36:59;;;;;;;4.85;2.53;;;28.00;99.70;;;;;;4861161;29;20240;-75
2023/08/23 16:39:26;;;;;;;3.63;1.10;;;27.90;99.90;;;;;;4861054;29;20304;-74
2023/08/23 16:41:53;;;;;;;2.97;1.10;;;27.90;99.90;;;;;;4861093;29;20251;-74
2023/08/23 16:44:20;;;;;;;1.05;0.80;;;27.60;99.90;;;;;;4861043;29;20247;-75
2023/08/23 16:46:47;;;;;;;3.33;1.00;;;27.60;99.90;;;;;;4860982;29;20330;-75
2023/08/23 16:49:13;;;;;;;2.90;1.00;;;27.60;99.90;;;;;;4860969;29;20571;-74
2023/08/23 16:51:42;;;;;;;2.35;0.90;;;27.50;99.90;;;;;;4861066;29;20259;-74
2023/08/23 16:54:10;;;;;;;3.17;1.08;;;27.30;99.90;;;;;;4861300;29;20312;-74
2023/08/23 16:56:37;;;;;;;3.35;1.38;;;27.30;99.90;;;;;;4861046;29;20212;-74
2023/08/23 16:59:04;;;;;;;1.75;1.00;;;27.60;99.90;;;;;;4860806;29;20394;-74
2023/08/23 17:01:31;;;;;;;1.85;1.00;;;27.60;99.90;;;;;;4860745;29;20267;-73
2023/08/23 17:03:57;;;;;;;1.55;0.90;;;27.50;99.90;;;;;;4860047;29;20691;-73
2023/08/23 17:06:24;;;;;;;1.35;0.90;;;27.40;99.90;;;;;;4860655;29;20653;-73
2023/08/23 17:08:53;;;;;;;2.08;0.90;;;27.30;99.90;;;;;;4860382;29;20254;-73
2023/08/23 17:11:20;;;;;;;3.22;1.05;;;27.20;99.90;;;;;;4860596;29;20232;-73
2023/08/23 17:13:47;;;;;;;2.20;1.00;;;27.40;99.90;;;;;;4858286;29;20252;-73
2023/08/23 17:16:14;;;;;;;2.65;1.00;;;27.20;99.90;;;;;;4854276;29;20291;-73
2023/08/23 17:18:40;;;;;;;2.33;1.00;;;27.20;99.90;;;;;;4853965;29;21158;-73
2023/08/23 17:21:07;;;;;;;5.85;1.10;;;27.30;99.90;;;;;;4858918;29;20323;-73
2023/08/23 17:23:34;;;;;;;2.30;1.08;;;27.10;99.90;;;;;;4860425;29;20223;-73
2023/08/23 17:26:04;;;;;;;2.95;1.00;;;27.10;99.90;;;;;;4860202;29;20302;-73
2023/08/23 17:28:31;;;;;;;1.08;0.80;;;27.20;99.90;;;;;;4860508;29;20410;-73
2023/08/23 17:30:59;;;;;;;2.22;1.00;;;27.30;99.90;;;;;;4860414;29;20312;-73
2023/08/23 17:33:26;;;;;;;1.85;1.00;;;27.40;99.90;;;;;;4860313;29;20252;-73
2023/08/23 17:35:53;;;;;;;1.45;1.00;;;27.50;99.90;;;;;;4860090;29;20303;-73
2023/08/23 17:38:20;;;;;;;0.80;0.75;;;27.60;99.80;;;;;;4859966;29;20302;-73
2023/08/23 17:40:47;;;;;;;1.20;0.90;;;27.70;99.90;;;;;;4860228;29;20236;-73
2023/08/23 17:43:15;;;;;;;1.88;0.98;;;27.50;99.90;;;;;;4860128;29;20243;-73
2023/08/23 17:45:42;;;;;;;2.65;1.00;;;27.40;99.90;;;;;;4860136;29;20262;-73
2023/08/23 17:48:09;;;;;;;2.20;0.82;;;27.40;99.90;;;;;;4860171;29;20294;-73
2023/08/23 17:50:35;;;;;;;2.65;1.13;;;27.10;99.90;;;;;;4860096;29;20318;-73
2023/08/23 17:53:03;;;;;;;1.52;0.90;;;26.90;99.90;;;;;;4860135;29;20644;-73
2023/08/23 17:55:29;;;;;;;2.90;0.85;;;26.80;99.90;;;;;;4860302;29;20235;-73
2023/08/23 17:57:57;;;;;;;1.73;1.10;;;26.70;99.90;;;;;;4859941;29;20243;-73
2023/08/23 18:00:25;;;;;;;4.22;1.05;;;26.70;99.90;;;;;;4860125;29;20240;-73
2023/08/23 18:02:52;;;;;;;1.83;1.00;;;26.50;99.90;;;;;;4860087;29;20643;-73
2023/08/23 18:05:19;;;;;;;1.50;0.90;;;26.40;99.90;;;;;;4860546;29;20311;-73
2023/08/23 18:07:47;;;;;;;2.42;1.13;;;26.10;99.90;;;;;;4859891;29;20327;-74
2023/08/23 18:10:14;;;;;;;1.88;1.00;;;26.00;99.90;;;;;;4859577;29;20775;-73
2023/08/23 18:12:41;;;;;;;3.70;0.95;;;26.00;99.90;;;;;;4860205;29;20212;-73
2023/08/23 18:15:09;;;;;;;2.17;1.00;;;26.10;99.90;;;;;;4860380;29;20254;-74
2023/08/23 18:17:37;;;;;;;2.28;0.90;;;25.90;99.90;;;;;;4860292;29;20222;-73
2023/08/23 18:20:05;;;;;;;3.17;0.85;;;26.10;99.90;;;;;;4849803;29;20319;-73
2023/08/23 18:22:32;;;;;;;1.75;0.98;;;25.90;99.90;;;;;;4846562;29;20248;-73
2023/08/23 18:24:59;;;;;;;1.60;1.00;;;26.00;99.90;;;;;;4847363;29;20266;-73
2023/08/23 18:27:26;;;;;;;1.52;1.10;;;26.00;99.90;;;;;;4849049;29;20274;-73
2023/08/23 18:29:53;;;;;;;2.75;0.95;;;25.90;99.90;;;;;;4844770;29;20783;-73
2023/08/23 18:32:19;;;;;;;1.63;0.90;;;25.70;99.90;;;;;;4859158;29;20240;-74
2023/08/23 18:34:48;;;;;;;1.92;1.00;;;25.60;99.90;;;;;;4853025;29;20212;-73
2023/08/23 18:37:15;;;;;;;1.80;1.10;;;25.60;99.90;;;;;;4859293;29;20242;-74
2023/08/23 18:39:42;;;;;;;2.40;1.25;;;25.50;99.90;;;;;;4850768;29;20263;-73
2023/08/23 18:42:08;;;;;;;3.72;1.40;;;25.50;99.90;;;;;;4857117;29;20243;-73
2023/08/23 18:44:35;;;;;;;3.35;1.65;;;25.50;99.90;;;;;;4857819;29;20486;-73
2023/08/23 18:47:03;;;;;;;2.92;1.30;;;25.30;99.90;;;;;;4856210;29;20327;-73
2023/08/23 18:49:30;;;;;;;3.60;1.50;;;25.20;99.90;;;;;;4856464;29;20299;-73
2023/08/23 18:51:58;;;;;;;2.70;1.33;;;24.90;99.90;;;;;;4856270;29;20303;-73
2023/08/23 18:54:25;;;;;;;2.40;1.50;;;25.00;99.90;;;;;;4861386;29;20631;-73
2023/08/23 18:56:52;;;;;;;2.83;1.10;;;24.90;99.90;;;;;;4847853;29;20212;-73
2023/08/23 18:59:18;;;;;;;2.92;1.30;;;24.80;99.90;;;;;;4853143;29;20268;-74
2023/08/23 19:01:44;;;;;;;3.50;1.30;;;24.70;99.90;;;;;;4854758;29;20228;-74
2023/08/23 19:04:11;;;;;;;4.00;1.35;;;24.60;99.90;;;;;;4862334;29;20291;-74
2023/08/23 19:06:38;;;;;;;1.92;1.10;;;24.50;99.90;;;;;;4855854;29;20298;-74
2023/08/23 19:09:06;;;;;;;3.25;1.30;;;24.30;99.90;;;;;;4856082;29;20252;-74
2023/08/23 19:11:33;;;;;;;2.33;1.30;;;24.30;99.90;;;;;;4853943;29;20691;-75
2023/08/23 19:14:00;;;;;;;3.28;1.00;;;24.20;99.90;;;;;;4856002;29;20244;-74
2023/08/23 19:16:27;;;;;;;3.30;1.25;;;24.10;99.90;;;;;;4853507;29;20256;-73
2023/08/23 19:18:54;;;;;;;3.60;1.33;;;23.90;99.90;;;;;;4854240;29;20621;-74
2023/08/23 19:21:21;;;;;;;3.00;1.40;;;23.90;99.90;;;;;;4852147;29;20659;-75
2023/08/23 19:23:48;;;;;;;2.38;1.30;;;23.80;99.90;;;;;;4854474;29;20271;-73
2023/08/23 19:26:16;;;;;;;1.83;1.20;;;23.70;99.90;;;;;;4844138;29;20295;-74
2023/08/23 19:28:43;;;;;;;1.63;1.00;;;23.60;99.90;;;;;;4853817;29;20681;-73
2023/08/23 19:31:10;;;;;;;1.50;1.00;;;23.50;99.90;;;;;;4852143;29;20791;-74
2023/08/23 19:33:36;;;;;;;2.17;0.95;;;23.30;99.90;;;;;;4856595;29;20307;-73
2023/08/23 19:36:04;;;;;;;1.70;1.00;;;23.30;99.90;;;;;;4851434;29;20295;-74
2023/08/23 19:38:31;;;;;;;2.72;1.30;;;23.20;99.90;;;;;;4855547;29;20565;-75
2023/08/23 19:40:58;;;;;;;2.22;1.20;;;23.20;99.90;;;;;;4857285;29;20262;-74
2023/08/23 19:43:26;;;;;;;2.13;1.17;;;23.20;99.90;;;;;;4854260;29;20295;-73
2023/08/23 19:45:54;;;;;;;3.42;1.23;;;23.10;99.90;;;;;;4856473;29;20249;-74
2023/08/23 19:48:21;;;;;;;2.40;1.13;;;23.00;99.90;;;;;;4855543;29;20278;-75
2023/08/23 19:50:49;;;;;;;2.35;1.30;;;23.00;99.90;;;;;;4854115;29;20234;-73
2023/08/23 19:53:16;;;;;;;1.33;1.13;;;22.90;99.90;;;;;;4855054;29;20732;-74
2023/08/23 19:55:42;;;;;;;1.73;1.20;;;22.90;99.90;;;;;;4852737;29;20728;-75
2023/08/23 19:58:09;;;;;;;2.75;0.98;;;22.80;99.90;;;;;;4852430;29;20315;-73
2023/08/23 20:00:38;;;;;;;2.53;1.27;;;22.70;99.90;;;;;;4851953;29;20271;-74
2023/08/23 20:03:05;;;;;;;5.07;1.15;;;22.60;99.90;;;;;;4845531;29;20244;-74
2023/08/23 20:05:34;;;;;;;1.55;1.00;;;22.60;99.90;;;;;;4851316;29;20311;-74
2023/08/23 20:08:01;;;;;;;1.40;1.00;;;22.50;99.90;;;;;;4852179;29;20239;-74
2023/08/23 20:10:29;;;;;;;1.30;0.95;;;22.40;99.90;;;;;;4858619;29;20292;-74